Time;durP1;ratioP1;P1;durP2;ratioP2;P2;SDS_P1;SDS_P2;PMS_P1;PMS_P2;Temp;Humidity;BMP_temperature;BMP_pressure;BME280_temperature;BME280_humidity;BME280_pressure;Samples;Min_cycle;Max_cycle;Signal;HPM_P1;HPM_P2
2021/12/05 00:18:28;;;;;;;12.70;4.20;;;;;;;5.26;69.96;98022.13;5052116;28;20059;-47
2021/12/05 00:23:30;;;;;;;9.70;4.80;;;;;;;5.08;70.56;98022.50;5052279;28;20037;-49
2021/12/05 00:25:59;;;;;;;10.82;8.02;;;;;;;5.06;71.73;98026.28;5051721;28;20120;-49
2021/12/05 00:29:05;;;;;;;7.05;4.10;;;;;;;5.21;71.53;98014.06;5051896;28;20029;-49
2021/12/05 00:34:37;;;;;;;109.85;69.10;;;;;;;5.14;70.66;98005.38;5052015;28;20040;-48
2021/12/05 00:40:16;;;;;;;42.70;22.70;;;;;;;5.32;69.02;98000.59;5051916;28;20056;-48
2021/12/05 00:51:02;;;;;;;9.32;3.35;;;;;;;5.87;66.92;97982.69;5009770;28;20038;-49
2021/12/05 00:57:28;;;;;;;9.80;3.10;;;;;;;5.93;67.09;97962.91;5010021;28;20300;-48
2021/12/05 01:02:13;;;;;;;6.30;2.50;;;;;;;5.93;66.61;97949.88;5009758;28;20060;-49
2021/12/05 01:05:14;;;;;;;16.67;6.88;;;;;;;5.96;66.74;97949.56;5009456;28;20046;-50
2021/12/05 01:10:32;;;;;;;9.00;5.40;;;;;;;6.07;64.74;97941.22;5009666;28;20030;-49
2021/12/05 01:13:27;;;;;;;6.85;3.63;;;;;;;5.73;65.07;97944.53;5009675;28;20034;-48
2021/12/05 01:15:50;;;;;;;8.80;3.65;;;;;;;5.75;65.62;97943.34;5009377;28;20093;-48
2021/12/05 01:18:18;;;;;;;13.38;5.03;;;;;;;5.61;66.01;97946.81;5011286;28;20030;-48
2021/12/05 01:20:57;;;;;;;8.82;2.50;;;;;;;5.53;65.60;97949.53;5013832;28;20052;-49
2021/12/05 01:23:43;;;;;;;7.18;1.83;;;;;;;5.33;66.01;97950.19;5055273;28;20379;-49
2021/12/05 01:29:20;;;;;;;6.25;1.92;;;;;;;5.00;66.83;97937.59;5026307;28;20090;-48
2021/12/05 01:34:44;;;;;;;9.63;5.28;;;;;;;4.62;68.35;97928.34;5055044;28;20028;-48
2021/12/05 01:58:43;;;;;;;3.83;1.40;;;;;;;4.62;68.26;97923.94;5054541;28;20454;-48
2021/12/05 02:09:43;;;;;;;7.53;1.95;;;;;;;5.04;66.63;97891.25;5054776;28;20040;-47
2021/12/05 02:41:29;;;;;;;7.90;2.63;;;;;;;4.49;69.17;97830.28;5053872;28;20032;-48
2021/12/05 02:44:04;;;;;;;7.97;5.10;;;;;;;4.36;69.18;97833.50;5035772;28;20459;-47
2021/12/05 02:46:30;;;;;;;10.75;6.47;;;;;;;4.43;69.82;97828.38;5053721;28;20398;-47
2021/12/05 02:49:01;;;;;;;5.20;2.88;;;;;;;4.61;69.44;97828.81;5053643;28;20108;-48
2021/12/05 02:51:29;;;;;;;8.38;2.47;;;;;;;4.62;69.08;97824.41;5053561;28;20082;-48
2021/12/05 02:54:16;;;;;;;11.23;2.90;;;;;;;4.53;68.83;97821.91;5053483;28;20036;-48
2021/12/05 02:56:46;;;;;;;9.00;2.60;;;;;;;4.58;68.55;97814.38;5035620;28;20405;-47
2021/12/05 02:59:23;;;;;;;7.97;3.88;;;;;;;4.40;68.87;97808.75;5053414;28;20099;-48
2021/12/05 03:02:09;;;;;;;9.43;5.38;;;;;;;4.32;68.55;97803.69;5053491;28;20021;-47
2021/12/05 03:04:37;;;;;;;23.35;15.95;;;;;;;4.19;69.22;97812.13;5053382;28;20047;-48
2021/12/05 03:07:05;;;;;;;10.85;6.65;;;;;;;4.06;69.50;97819.75;5053238;28;20033;-48
2021/12/05 03:09:30;;;;;;;11.23;3.92;;;;;;;3.90;69.34;97810.34;5053195;28;20487;-48
2021/12/05 03:11:56;;;;;;;5.80;2.33;;;;;;;3.95;70.00;97814.00;5053126;28;20027;-47
2021/12/05 03:14:23;;;;;;;10.35;4.43;;;;;;;4.01;69.69;97809.91;5053166;28;20021;-47
2021/12/05 03:16:50;;;;;;;7.32;2.88;;;;;;;4.06;69.73;97806.75;5053124;28;20054;-48
2021/12/05 03:19:17;;;;;;;8.73;2.78;;;;;;;4.10;69.08;97798.41;5051717;28;20025;-48
2021/12/05 03:21:45;;;;;;;5.88;2.00;;;;;;;4.14;68.91;97799.66;5035123;28;20118;-48
2021/12/05 03:24:13;;;;;;;6.20;2.53;;;;;;;4.25;68.14;97795.81;5034976;28;20021;-48
2021/12/05 03:26:43;;;;;;;5.85;1.77;;;;;;;4.30;67.72;97784.88;5052925;28;20029;-47
2021/12/05 03:29:12;;;;;;;8.32;2.70;;;;;;;4.76;68.57;97787.16;5052826;28;20090;-49
2021/12/05 03:31:38;;;;;;;3.53;2.00;;;;;;;5.03;66.41;97779.59;5052866;28;20028;-48
2021/12/05 03:34:08;;;;;;;15.88;11.10;;;;;;;5.28;65.51;97778.22;5034838;28;20112;-47
2021/12/05 03:36:35;;;;;;;7.10;3.17;;;;;;;5.60;64.56;97779.44;5052459;28;20055;-47
2021/12/05 03:39:03;;;;;;;5.80;1.55;;;;;;;5.92;64.70;97776.44;5052766;28;20037;-48
2021/12/05 03:41:29;;;;;;;5.03;1.63;;;;;;;6.16;63.01;97775.97;5052468;28;20044;-49
2021/12/05 03:43:56;;;;;;;8.13;1.90;;;;;;;6.02;62.44;97769.09;5034916;28;20063;-48
2021/12/05 03:46:23;;;;;;;4.75;1.63;;;;;;;5.80;62.13;97771.75;5034624;28;20465;-48
2021/12/05 03:48:56;;;;;;;4.47;1.55;;;;;;;5.67;63.69;97769.06;5052515;28;20052;-49
2021/12/05 03:51:24;;;;;;;10.13;4.35;;;;;;;5.72;62.65;97769.31;5052371;28;20032;-48
2021/12/05 03:53:51;;;;;;;6.65;1.63;;;;;;;5.86;63.03;97761.56;5052293;28;20400;-48
2021/12/05 03:56:18;;;;;;;4.10;1.90;;;;;;;5.89;61.36;97754.16;5052225;28;20458;-48
2021/12/05 03:58:45;;;;;;;6.68;1.70;;;;;;;5.79;61.29;97751.94;5052376;28;20029;-49
2021/12/05 04:01:14;;;;;;;14.43;3.35;;;;;;;5.99;62.52;97738.22;5052173;28;20454;-48
2021/12/05 04:03:42;;;;;;;3.63;1.63;;;;;;;6.45;61.49;97745.38;5052265;28;20025;-50
2021/12/05 04:06:12;;;;;;;6.47;2.67;;;;;;;6.46;60.55;97741.78;5052120;28;20379;-49
2021/12/05 04:08:41;;;;;;;5.85;2.90;;;;;;;6.44;60.55;97735.13;5052145;28;20029;-48
2021/12/05 04:11:18;;;;;;;13.85;6.90;;;;;;;6.28;61.49;97733.69;5052122;28;20494;-49
2021/12/05 04:13:44;;;;;;;4.57;1.50;;;;;;;6.19;62.02;97731.25;5052170;28;20021;-49
2021/12/05 04:16:13;;;;;;;6.95;2.10;;;;;;;6.12;61.95;97732.25;5052010;28;20021;-49
2021/12/05 04:18:39;;;;;;;4.75;1.83;;;;;;;6.09;62.52;97736.03;5051992;28;20499;-49
2021/12/05 04:21:06;;;;;;;6.25;1.80;;;;;;;5.98;62.24;97744.44;5051973;28;20375;-49
2021/12/05 04:23:33;;;;;;;12.75;1.50;;;;;;;6.00;62.34;97734.63;5051872;28;20028;-50
2021/12/05 04:26:00;;;;;;;8.32;2.00;;;;;;;6.06;62.32;97736.44;5051840;28;20017;-49
2021/12/05 04:28:27;;;;;;;3.72;1.25;;;;;;;6.23;61.92;97736.09;5051899;28;20120;-49
2021/12/05 04:30:52;;;;;;;6.72;1.88;;;;;;;6.28;61.50;97731.09;5033986;28;20025;-49
2021/12/05 04:33:18;;;;;;;5.43;1.30;;;;;;;6.34;61.21;97736.34;5033924;28;20486;-48
2021/12/05 04:35:44;;;;;;;2.88;1.00;;;;;;;6.32;60.52;97724.50;5051444;28;20041;-48
2021/12/05 04:38:10;;;;;;;4.35;1.40;;;;;;;6.30;60.10;97724.69;5033745;28;20029;-49
2021/12/05 04:40:36;;;;;;;2.92;1.00;;;;;;;6.30;59.88;97710.84;5033666;28;20111;-48
2021/12/05 04:43:05;;;;;;;4.10;1.27;;;;;;;6.33;60.00;97713.88;5051751;28;20475;-49
2021/12/05 04:45:34;;;;;;;5.72;1.05;;;;;;;6.39;59.76;97709.69;5051533;28;20031;-49
2021/12/05 04:48:01;;;;;;;3.67;1.30;;;;;;;6.43;60.34;97703.06;5051699;28;20023;-48
2021/12/05 04:50:28;;;;;;;3.72;1.02;;;;;;;6.44;59.52;97690.84;5051506;28;20107;-48
2021/12/05 04:52:55;;;;;;;3.30;1.10;;;;;;;6.36;59.65;97694.44;5054599;28;20017;-49
2021/12/05 04:55:22;;;;;;;5.00;1.13;;;;;;;6.33;60.27;97693.03;5040356;28;20021;-49
2021/12/05 04:57:48;;;;;;;7.43;3.03;;;;;;;6.31;60.22;97702.84;5058242;28;20537;-49
2021/12/05 05:00:28;;;;;;;3.55;1.35;;;;;;;6.34;59.86;97701.66;5058229;28;20033;-49
2021/12/05 05:02:55;;;;;;;10.23;1.65;;;;;;;6.29;60.29;97696.22;5040370;28;20115;-49
2021/12/05 05:05:21;;;;;;;3.65;1.13;;;;;;;6.38;60.99;97687.25;5057963;28;20499;-49
2021/12/05 05:07:48;;;;;;;4.25;1.20;;;;;;;6.40;60.40;97680.03;5058125;28;20100;-48
2021/12/05 05:10:24;;;;;;;5.22;1.38;;;;;;;6.35;60.15;97679.81;5058205;28;20032;-49
2021/12/05 05:12:50;;;;;;;2.28;1.10;;;;;;;6.37;60.10;97678.59;5040226;28;20033;-49
2021/12/05 05:15:21;;;;;;;3.75;1.33;;;;;;;6.41;60.09;97681.63;5040115;28;20059;-49
2021/12/05 05:17:50;;;;;;;4.28;1.25;;;;;;;6.44;60.06;97680.41;5058070;28;20025;-48
2021/12/05 05:20:31;;;;;;;5.13;2.42;;;;;;;6.52;60.18;97686.25;5058018;28;20031;-49
2021/12/05 05:26:11;;;;;;;5.15;1.17;;;;;;;6.85;59.58;97690.69;5058220;28;20037;-47
2021/12/05 05:39:35;;;;;;;3.45;2.05;;;;;;;6.93;58.32;97684.47;5057909;28;20574;-49
2021/12/05 05:46:59;;;;;;;2.97;1.05;;;;;;;6.91;58.14;97683.88;5057890;28;20107;-49
2021/12/05 05:51:58;;;;;;;5.03;1.13;;;;;;;6.94;58.22;97683.44;5057672;28;20021;-50
2021/12/05 05:54:24;;;;;;;3.40;1.10;;;;;;;6.97;59.78;97691.69;5057673;28;20025;-49
2021/12/05 05:56:56;;;;;;;3.65;0.80;;;;;;;6.88;59.56;97690.28;5057717;28;20021;-49
2021/12/05 05:59:26;;;;;;;4.45;1.40;;;;;;;6.80;60.71;97675.66;5057721;28;20033;-48
2021/12/05 06:04:19;;;;;;;6.00;2.60;;;;;;;6.66;60.48;97687.06;5056094;28;20117;-48
2021/12/05 06:06:46;;;;;;;11.05;4.15;;;;;;;6.64;61.74;97675.22;5054347;28;20537;-49
2021/12/05 06:09:12;;;;;;;6.10;2.70;;;;;;;6.94;62.30;97679.06;5054426;28;20100;-50
2021/12/05 06:11:37;;;;;;;7.15;1.55;;;;;;;7.27;60.77;97685.22;5054391;28;20017;-49
2021/12/05 06:14:04;;;;;;;4.03;2.05;;;;;;;7.26;60.30;97676.59;5054322;28;20516;-50
2021/12/05 06:16:30;;;;;;;5.13;1.63;;;;;;;7.58;60.38;97680.13;5054349;28;20072;-50
2021/12/05 06:18:57;;;;;;;12.43;8.10;;;;;;;7.63;58.37;97679.50;5036240;28;20029;-49
2021/12/05 06:21:23;;;;;;;12.43;9.90;;;;;;;7.24;59.08;97683.81;5054274;28;20018;-49
2021/12/05 06:23:49;;;;;;;5.07;2.38;;;;;;;7.05;60.35;97674.22;5054144;28;20509;-49
2021/12/05 06:26:29;;;;;;;7.35;2.40;;;;;;;7.24;60.29;97672.56;5054039;28;20065;-50
2021/12/05 06:29:19;;;;;;;7.82;2.88;;;;;;;7.39;60.12;97673.94;5054090;28;20035;-49
2021/12/05 06:45:59;;;;;;;9.55;2.92;;;;;;;7.32;60.81;97683.59;5053781;28;20037;-49
2021/12/05 06:48:00;;;;;;;6.00;3.05;;;;;;;7.15;60.90;97685.84;5054019;28;20036;-49
2021/12/05 06:50:25;;;;;;;5.55;2.13;;;;;;;6.79;60.94;97684.44;5053616;28;20025;-49
2021/12/05 06:52:51;;;;;;;7.45;3.42;;;;;;;6.68;61.49;97685.06;5035634;28;20466;-48
2021/12/05 06:55:18;;;;;;;15.93;12.38;;;;;;;6.65;61.40;97682.06;5053476;28;20025;-49
2021/12/05 06:57:45;;;;;;;10.20;3.33;;;;;;;6.47;61.79;97680.03;5053576;28;20021;-49
2021/12/05 07:00:20;;;;;;;9.02;3.25;;;;;;;6.10;62.63;97682.16;5053512;28;20079;-49
2021/12/05 07:02:46;;;;;;;8.52;2.60;;;;;;;6.03;63.13;97682.13;5053436;28;20111;-49
2021/12/05 07:05:35;;;;;;;4.47;1.80;;;;;;;6.18;62.71;97671.56;5053290;28;20112;-49
2021/12/05 07:08:00;;;;;;;7.78;2.83;;;;;;;6.37;62.41;97676.00;5053125;28;20454;-49
2021/12/05 07:10:28;;;;;;;6.47;2.80;;;;;;;6.26;62.16;97668.78;5053188;28;20044;-50
2021/12/05 07:20:51;;;;;;;7.53;3.47;;;;;;;6.01;63.78;97678.91;5053158;28;20461;-48
2021/12/05 07:26:09;;;;;;;24.30;17.75;;;;;;;6.14;66.11;97673.75;5052903;28;20063;-50
2021/12/05 07:42:24;;;;;;;10.57;4.38;;;;;;;6.17;63.61;97693.38;5052702;28;20465;-49
2021/12/05 07:44:55;;;;;;;9.65;4.68;;;;;;;6.11;64.36;97686.38;5052613;28;20029;-49
2021/12/05 07:47:29;;;;;;;6.82;2.35;;;;;;;6.17;63.67;97681.16;5052569;28;20055;-48
2021/12/05 07:49:56;;;;;;;10.02;3.50;;;;;;;6.18;63.71;97677.56;5052527;28;20024;-49
2021/12/05 07:52:26;;;;;;;12.35;5.25;;;;;;;6.17;63.95;97675.94;5034525;28;20456;-49
2021/12/05 07:54:59;;;;;;;9.85;3.05;;;;;;;6.25;63.91;97687.19;5052436;28;20025;-48
2021/12/05 07:57:35;;;;;;;6.57;3.97;;;;;;;6.33;64.03;97679.19;5034524;28;20399;-49
2021/12/05 08:00:31;;;;;;;7.25;3.50;;;;;;;6.28;63.92;97681.59;5052359;28;20061;-49
2021/12/05 08:16:30;;;;;;;13.95;5.57;;;;;;;6.35;65.74;97687.63;5052172;28;20044;-50
2021/12/05 08:18:56;;;;;;;9.30;4.32;;;;;;;6.79;66.75;97692.28;5034139;28;20108;-49
2021/12/05 08:21:22;;;;;;;10.32;3.85;;;;;;;6.95;64.88;97698.09;5034014;28;20498;-49
2021/12/05 08:23:49;;;;;;;14.95;4.80;;;;;;;6.89;64.88;97701.53;5051979;28;20116;-49
2021/12/05 08:26:21;;;;;;;431.75;360.10;;;;;;;6.81;64.77;97697.28;5051741;28;20548;-49
2021/12/05 08:31:35;;;;;;;57.72;42.13;;;;;;;6.85;64.58;97708.13;5051747;28;20037;-49
2021/12/05 08:40:12;;;;;;;23.27;14.02;;;;;;;7.23;63.97;97697.09;5051798;28;20037;-49
2021/12/05 08:43:33;;;;;;;19.35;10.95;;;;;;;7.35;63.42;97695.44;5049083;28;20514;-50
2021/12/05 09:26:43;;;;;;;10.30;4.22;;;;;;;13.28;49.18;97692.69;5051314;28;20075;-50
2021/12/05 10:01:26;;;;;;;6.90;3.92;;;;;;;12.41;48.92;97704.47;5054711;28;20059;-50
2021/12/05 10:09:43;;;;;;;8.77;4.25;;;;;;;12.65;50.03;97717.53;5054750;28;20390;-50
2021/12/05 10:12:40;;;;;;;9.82;4.38;;;;;;;12.72;49.14;97718.19;5054454;28;20055;-50
2021/12/05 10:35:58;;;;;;;9.77;5.07;;;;;;;11.28;54.78;97720.59;5053799;28;20052;-51
2021/12/05 10:38:59;;;;;;;4.22;2.17;;;;;;;10.54;55.58;97730.63;5053995;28;20418;-49
2021/12/05 10:44:02;;;;;;;19.35;16.15;;;;;;;9.90;57.49;97731.00;5053803;28;20057;-50
2021/12/05 10:46:32;;;;;;;6.15;2.28;;;;;;;9.80;57.45;97726.28;5035790;28;20171;-50
2021/12/05 10:49:05;;;;;;;7.80;2.47;;;;;;;9.82;57.18;97723.44;5035827;28;20037;-49
2021/12/05 10:51:37;;;;;;;7.85;1.98;;;;;;;9.86;56.71;97724.59;5052806;28;20033;-49
2021/12/05 10:54:12;;;;;;;12.57;4.82;;;;;;;9.92;56.85;97726.34;5035708;28;20032;-49
2021/12/05 10:56:49;;;;;;;7.18;1.88;;;;;;;10.05;56.94;97724.59;5045507;28;20026;-49
2021/12/05 10:59:20;;;;;;;4.47;2.22;;;;;;;10.16;55.45;97723.81;5035640;28;20441;-49
2021/12/05 11:01:52;;;;;;;12.40;3.10;;;;;;;10.26;54.58;97720.69;5035540;28;20036;-48
2021/12/05 11:04:27;;;;;;;5.60;2.05;;;;;;;10.35;53.89;97722.00;5053431;28;20029;-50
2021/12/05 11:07:05;;;;;;;5.95;1.55;;;;;;;10.49;52.85;97723.44;5053436;28;20017;-50
2021/12/05 11:09:39;;;;;;;10.00;3.30;;;;;;;10.54;51.95;97723.56;5053379;28;20037;-49
2021/12/05 11:12:09;;;;;;;5.93;1.63;;;;;;;10.56;51.51;97713.66;5053320;28;20029;-49
2021/12/05 11:14:56;;;;;;;9.10;1.92;;;;;;;10.65;51.29;97716.75;5035395;28;20028;-50
2021/12/05 11:17:29;;;;;;;7.63;2.92;;;;;;;10.77;50.85;97714.94;5053246;28;20021;-48
2021/12/05 11:20:06;;;;;;;6.22;2.92;;;;;;;10.77;50.78;97722.81;5053222;28;20033;-49
2021/12/05 11:22:36;;;;;;;5.32;1.38;;;;;;;10.89;49.60;97708.94;5053157;28;20036;-50
2021/12/05 11:25:24;;;;;;;7.15;1.50;;;;;;;10.59;50.04;97715.81;5035042;28;20029;-50
2021/12/05 11:27:55;;;;;;;5.07;1.50;;;;;;;10.65;49.97;97715.94;5035114;28;20033;-49
2021/12/05 11:30:35;;;;;;;6.22;1.55;;;;;;;10.93;50.05;97712.69;5052958;28;20025;-49
2021/12/05 11:33:03;;;;;;;5.43;1.50;;;;;;;11.41;49.01;97714.31;5053002;28;20552;-50
2021/12/05 11:35:37;;;;;;;3.72;1.20;;;;;;;11.66;48.21;97716.69;5052582;28;20484;-49
2021/12/05 11:38:25;;;;;;;5.53;1.90;;;;;;;11.66;48.09;97716.69;5052755;28;20028;-49
2021/12/05 11:41:06;;;;;;;5.22;1.48;;;;;;;11.37;48.08;97711.34;5052753;28;20507;-49
2021/12/05 11:43:37;;;;;;;6.55;1.55;;;;;;;11.27;48.50;97713.75;5052722;28;20029;-49
2021/12/05 11:46:13;;;;;;;11.45;2.38;;;;;;;10.94;49.76;97709.81;5052603;28;20025;-49
2021/12/05 11:48:52;;;;;;;4.20;2.00;;;;;;;11.06;51.45;97707.22;5052598;28;20514;-49
2021/12/05 11:51:46;;;;;;;14.70;9.05;;;;;;;10.98;53.58;97707.56;5052555;28;20029;-49
2021/12/05 11:54:23;;;;;;;6.88;1.88;;;;;;;10.68;53.94;97711.03;5052582;28;20021;-50
2021/12/05 11:57:00;;;;;;;6.15;2.60;;;;;;;10.49;55.26;97712.94;5052765;28;20059;-49
2021/12/05 11:59:38;;;;;;;10.05;1.98;;;;;;;10.15;56.03;97709.91;5052419;28;20025;-49
2021/12/05 12:02:17;;;;;;;4.45;1.67;;;;;;;9.36;57.63;97727.34;5034338;28;20044;-48
2021/12/05 12:05:01;;;;;;;15.98;2.88;;;;;;;8.53;59.73;97725.75;5052360;28;20024;-48
2021/12/05 12:07:45;;;;;;;4.63;2.55;;;;;;;7.92;62.02;97730.44;5052322;28;20029;-49
2021/12/05 12:10:20;;;;;;;8.48;4.20;;;;;;;7.68;64.20;97733.72;5034268;28;20104;-48
2021/12/05 12:13:11;;;;;;;4.43;1.33;;;;;;;7.71;65.08;97735.94;5052193;28;20575;-48
2021/12/05 12:15:39;;;;;;;2.13;1.08;;;;;;;7.96;65.58;97741.28;5026139;28;20037;-48
2021/12/05 12:18:15;;;;;;;1.90;1.30;;;;;;;8.27;65.20;97740.56;5050776;28;20025;-49
2021/12/05 12:20:45;;;;;;;3.85;1.00;;;;;;;8.60;65.58;97734.38;5044424;28;20107;-49
2021/12/05 12:23:12;;;;;;;37.50;23.38;;;;;;;8.85;65.53;97726.53;5034127;28;20064;-49
2021/12/05 12:25:40;;;;;;;8.02;2.25;;;;;;;8.93;64.81;97731.53;5051904;28;20048;-48
2021/12/05 12:28:07;;;;;;;17.13;9.55;;;;;;;8.86;64.98;97724.75;5051961;28;20513;-49
2021/12/05 12:30:36;;;;;;;7.97;3.90;;;;;;;8.86;64.51;97714.28;5051921;28;20099;-48
2021/12/05 12:33:08;;;;;;;7.75;1.45;;;;;;;8.93;63.92;97718.44;5051875;28;20549;-49
2021/12/05 12:35:34;;;;;;;5.22;2.75;;;;;;;8.97;62.94;97724.03;5051655;28;20094;-49
2021/12/05 12:38:29;;;;;;;5.97;2.10;;;;;;;9.08;61.35;97719.94;5051806;28;20054;-49
2021/12/05 12:41:20;;;;;;;2.95;1.27;;;;;;;8.93;59.99;97723.69;5020771;28;20507;-49
2021/12/05 12:43:56;;;;;;;4.00;1.48;;;;;;;8.55;61.01;97728.94;5029985;28;20037;-49
2021/12/05 12:46:40;;;;;;;8.55;3.13;;;;;;;8.76;61.37;97727.81;5051639;28;20029;-50
2021/12/05 12:49:15;;;;;;;6.10;2.70;;;;;;;9.19;59.80;97727.06;5051968;28;20398;-49
2021/12/05 12:52:00;;;;;;;4.97;2.80;;;;;;;9.39;59.04;97724.28;5026229;28;20410;-49
2021/12/05 12:54:49;;;;;;;8.55;3.63;;;;;;;9.48;58.86;97716.97;5051713;28;20029;-49
2021/12/05 12:57:20;;;;;;;2.63;1.23;;;;;;;9.62;58.15;97720.22;5033653;28;20029;-49
2021/12/05 12:59:58;;;;;;;10.70;8.50;;;;;;;9.70;57.91;97722.53;5051489;28;20029;-49
2021/12/05 13:03:27;;;;;;;4.25;1.50;;;;;;;9.84;57.16;97720.59;5051638;28;20025;-49
2021/12/05 13:11:20;;;;;;;7.18;1.60;;;;;;;11.99;55.31;97700.31;5051793;28;20566;-49
2021/12/05 13:14:02;;;;;;;5.78;1.90;;;;;;;12.24;53.76;97708.91;5034509;28;20127;-50
2021/12/05 13:16:36;;;;;;;10.35;3.75;;;;;;;12.46;54.21;97724.84;5055621;28;20036;-48
2021/12/05 13:19:16;;;;;;;2.97;1.40;;;;;;;12.05;54.71;97713.53;5055491;28;20437;-50
2021/12/05 13:21:46;;;;;;;8.02;4.03;;;;;;;10.94;55.15;97719.53;5047945;28;20065;-50
2021/12/05 13:24:42;;;;;;;6.28;3.38;;;;;;;10.11;58.38;97731.56;5037398;28;20407;-50
2021/12/05 13:27:24;;;;;;;6.28;2.90;;;;;;;9.59;60.62;97730.13;5048853;28;20040;-50
2021/12/05 13:29:52;;;;;;;9.45;5.45;;;;;;;8.98;61.32;97723.81;5055232;28;20036;-51
2021/12/05 13:32:25;;;;;;;7.70;2.92;;;;;;;8.64;63.72;97726.91;5037196;28;20029;-49
2021/12/05 13:35:08;;;;;;;5.25;1.25;;;;;;;8.41;63.97;97723.03;5054967;28;20029;-48
2021/12/05 13:37:49;;;;;;;7.05;2.85;;;;;;;8.32;65.57;97719.00;5055200;28;20033;-49
2021/12/05 13:40:18;;;;;;;5.70;1.20;;;;;;;8.60;65.19;97716.06;5055039;28;20029;-48
2021/12/05 13:42:48;;;;;;;8.95;1.75;;;;;;;8.65;66.93;97715.41;5037086;28;20029;-49
2021/12/05 13:45:26;;;;;;;10.18;4.93;;;;;;;9.05;66.68;97717.75;5054947;28;20037;-49
2021/12/05 13:47:52;;;;;;;2.97;1.52;;;;;;;8.88;65.03;97718.28;5055011;28;20037;-49
2021/12/05 13:50:29;;;;;;;7.68;3.63;;;;;;;8.93;65.62;97715.84;5054791;28;20021;-49
2021/12/05 13:53:15;;;;;;;18.02;7.47;;;;;;;9.11;66.22;97711.63;5054902;28;20051;-50
2021/12/05 13:55:41;;;;;;;;;;;;;;;9.30;66.57;97712.50;5055267;28;20056;-49
2021/12/05 13:58:22;;;;;;;6.82;1.70;;;;;;;9.34;64.78;97711.84;5054793;28;19940;-49
2021/12/05 14:00:56;;;;;;;4.72;1.40;;;;;;;9.13;63.26;97715.63;5054742;28;20403;-50
2021/12/05 14:03:59;;;;;;;14.02;8.45;;;;;;;8.73;63.85;97710.75;5054651;28;20025;-49
2021/12/05 14:06:52;;;;;;;20.67;18.27;;;;;;;8.40;63.93;97716.94;5036529;28;20029;-49
2021/12/05 14:09:37;;;;;;;7.65;4.85;;;;;;;8.18;63.49;97721.69;5054517;28;20055;-49
2021/12/05 14:12:19;;;;;;;4.95;1.42;;;;;;;8.16;64.17;97710.63;5054560;28;20494;-50
2021/12/05 14:14:47;;;;;;;6.03;1.15;;;;;;;8.22;64.07;97714.22;5054529;28;20029;-49
2021/12/05 14:17:48;;;;;;;8.10;2.10;;;;;;;8.29;64.15;97711.56;5036469;28;20064;-50
2021/12/05 14:20:22;;;;;;;17.73;9.25;;;;;;;8.34;63.86;97706.53;5022056;28;20606;-49
2021/12/05 14:22:50;;;;;;;6.40;2.17;;;;;;;8.36;63.13;97715.75;5036324;28;20090;-50
2021/12/05 14:25:22;;;;;;;5.60;1.80;;;;;;;8.47;62.84;97716.13;5034877;28;20028;-50
2021/12/05 14:27:53;;;;;;;4.22;2.17;;;;;;;8.48;62.55;97723.78;5054210;28;20403;-50
2021/12/05 14:30:24;;;;;;;10.13;4.18;;;;;;;8.43;61.92;97720.19;5054152;28;20086;-50
2021/12/05 14:32:57;;;;;;;5.57;2.03;;;;;;;8.46;62.66;97723.19;5054118;28;20425;-50
2021/12/05 14:35:28;;;;;;;5.93;2.58;;;;;;;8.53;62.25;97721.34;5053808;28;20471;-50
2021/12/05 14:37:55;;;;;;;6.78;1.70;;;;;;;8.83;62.29;97728.56;5053983;28;20029;-50
2021/12/05 14:40:30;;;;;;;5.60;1.65;;;;;;;9.23;61.68;97728.25;5035978;28;20021;-49
2021/12/05 14:43:04;;;;;;;5.10;1.30;;;;;;;9.33;60.01;97733.00;5053991;28;20485;-50
2021/12/05 14:45:32;;;;;;;2.90;1.70;;;;;;;9.14;59.79;97735.56;5035996;28;20406;-50
2021/12/05 14:48:03;;;;;;;10.90;9.45;;;;;;;8.91;59.35;97738.75;5035938;28;20021;-50
2021/12/05 14:50:32;;;;;;;5.82;2.80;;;;;;;8.64;59.65;97742.59;5035943;28;20047;-49
2021/12/05 14:53:00;;;;;;;6.47;4.18;;;;;;;8.41;60.58;97741.31;5035874;28;20025;-50
2021/12/05 14:55:29;;;;;;;10.48;3.50;;;;;;;8.32;61.14;97750.38;5053677;28;20041;-49
2021/12/05 14:58:10;;;;;;;5.35;3.10;;;;;;;8.23;61.54;97752.44;5053664;28;20425;-49
2021/12/05 15:00:50;;;;;;;5.30;2.25;;;;;;;8.17;61.50;97753.28;5053620;28;20466;-50
2021/12/05 15:03:20;;;;;;;4.38;2.53;;;;;;;8.10;61.63;97762.94;5053566;28;20529;-48
2021/12/05 15:05:58;;;;;;;6.70;2.88;;;;;;;7.95;62.48;97755.38;5035423;28;20064;-48
2021/12/05 15:08:26;;;;;;;48.80;39.70;;;;;;;7.86;64.49;97749.53;5053456;28;20037;-49
2021/12/05 15:10:55;;;;;;;10.00;3.40;;;;;;;8.06;66.16;97752.09;5035449;28;20021;-48
2021/12/05 15:13:21;;;;;;;9.82;3.85;;;;;;;8.09;65.58;97758.72;5035360;28;20020;-50
2021/12/05 15:15:47;;;;;;;13.38;7.32;;;;;;;7.94;65.55;97757.16;5035364;28;20380;-49
2021/12/05 15:18:19;;;;;;;14.13;4.25;;;;;;;7.81;66.62;97762.44;5053259;28;20031;-50
2021/12/05 15:20:47;;;;;;;12.50;4.07;;;;;;;7.89;67.98;97772.66;5053198;28;20024;-50
2021/12/05 15:23:14;;;;;;;19.98;14.60;;;;;;;7.94;67.34;97777.25;5053181;28;20029;-49
2021/12/05 15:25:41;;;;;;;15.45;9.13;;;;;;;8.00;68.02;97779.03;5053210;28;20028;-50
2021/12/05 15:28:10;;;;;;;8.02;3.22;;;;;;;7.84;66.95;97785.50;5035056;28;20021;-49
2021/12/05 15:30:39;;;;;;;7.20;2.70;;;;;;;7.70;68.04;97792.56;5052942;28;20025;-49
2021/12/05 15:33:08;;;;;;;8.60;3.13;;;;;;;7.56;68.21;97783.97;5034960;28;20028;-48
2021/12/05 15:35:34;;;;;;;8.90;5.13;;;;;;;7.36;68.21;97793.63;5052679;28;20131;-48
2021/12/05 15:38:13;;;;;;;12.77;2.70;;;;;;;7.11;69.60;97799.44;5034626;28;20495;-49
2021/12/05 15:40:44;;;;;;;9.52;3.65;;;;;;;7.06;70.60;97801.84;5052830;28;20033;-48
2021/12/05 15:43:21;;;;;;;19.80;6.57;;;;;;;6.97;70.49;97790.00;5034867;28;20032;-48
2021/12/05 15:45:50;;;;;;;5.40;2.10;;;;;;;6.79;69.50;97795.78;5052651;28;20116;-48
2021/12/05 15:48:24;;;;;;;9.68;3.05;;;;;;;6.49;70.68;97793.50;5052656;28;20036;-47
2021/12/05 15:50:51;;;;;;;4.78;1.85;;;;;;;6.32;70.92;97792.25;5034677;28;20029;-47
2021/12/05 15:53:18;;;;;;;5.28;2.13;;;;;;;6.17;71.15;97787.97;5034640;28;20017;-47
2021/12/05 15:55:47;;;;;;;8.73;2.80;;;;;;;6.05;71.06;97791.34;5034532;28;20167;-48
2021/12/05 15:58:24;;;;;;;6.18;2.55;;;;;;;6.04;71.73;97793.13;5052526;28;20096;-48
2021/12/05 16:00:59;;;;;;;5.55;2.03;;;;;;;5.95;70.68;97791.69;5052418;28;20591;-47
2021/12/05 16:03:46;;;;;;;3.72;1.80;;;;;;;5.84;70.91;97800.81;5052391;28;20029;-47
2021/12/05 16:06:14;;;;;;;3.42;1.70;;;;;;;5.73;71.04;97801.34;5051807;28;20044;-47
2021/12/05 16:08:42;;;;;;;5.63;2.65;;;;;;;5.71;71.26;97806.72;5052275;28;20017;-48
2021/12/05 16:11:17;;;;;;;9.93;3.97;;;;;;;5.68;70.89;97801.91;5034240;28;20033;-47
2021/12/05 16:13:44;;;;;;;4.00;2.40;;;;;;;5.68;70.24;97799.31;5034391;28;20459;-47
2021/12/05 16:16:13;;;;;;;7.63;4.55;;;;;;;5.63;71.04;97803.47;5034210;28;20056;-48
2021/12/05 16:18:41;;;;;;;9.50;6.47;;;;;;;5.52;70.57;97794.41;5044063;28;20056;-47
2021/12/05 16:21:28;;;;;;;15.32;8.82;;;;;;;5.44;70.98;97803.16;5052006;28;20024;-47
2021/12/05 16:23:56;;;;;;;15.25;11.30;;;;;;;5.34;70.75;97790.47;5052127;28;20070;-48
2021/12/05 16:26:28;;;;;;;3.92;2.38;;;;;;;5.18;70.90;97791.53;5051875;28;20067;-48
2021/12/05 16:29:15;;;;;;;4.88;1.70;;;;;;;5.09;70.86;97789.25;5052037;28;20498;-47
2021/12/05 16:31:42;;;;;;;2.63;1.88;;;;;;;5.03;70.51;97792.59;5051919;28;20553;-48
2021/12/05 16:34:09;;;;;;;5.75;2.38;;;;;;;4.97;70.20;97797.56;5051857;28;20127;-46
2021/12/05 16:36:56;;;;;;;4.50;2.33;;;;;;;4.94;70.87;97794.53;5051544;28;20041;-48
2021/12/05 16:39:33;;;;;;;4.90;2.20;;;;;;;4.93;70.96;97790.31;5051910;28;20495;-48
2021/12/05 16:42:08;;;;;;;8.68;4.97;;;;;;;4.97;71.74;97783.75;5033891;28;20116;-47
2021/12/05 16:44:37;;;;;;;5.83;3.80;;;;;;;5.14;72.30;97784.31;5051820;28;20036;-48
2021/12/05 16:47:14;;;;;;;18.45;14.32;;;;;;;5.19;72.22;97780.16;5050304;28;20032;-47
2021/12/05 16:49:46;;;;;;;14.45;7.57;;;;;;;5.18;72.63;97775.13;5043119;28;20446;-47
2021/12/05 16:52:23;;;;;;;8.18;3.85;;;;;;;5.11;72.20;97769.91;5033749;28;20125;-49
2021/12/05 16:54:53;;;;;;;5.30;3.67;;;;;;;5.02;72.08;97781.41;5033797;28;20033;-48
2021/12/05 16:57:29;;;;;;;9.05;3.65;;;;;;;4.95;71.99;97776.16;5051628;28;20486;-48
2021/12/05 16:59:57;;;;;;;4.93;2.95;;;;;;;4.90;72.03;97773.28;5051662;28;20028;-48
2021/12/05 17:02:25;;;;;;;5.20;2.95;;;;;;;4.97;73.11;97770.75;5051553;28;20033;-48
2021/12/05 17:05:34;;;;;;;17.73;11.82;;;;;;;5.05;74.77;97775.03;5051461;28;20025;-49
2021/12/05 17:08:13;;;;;;;50.60;38.33;;;;;;;5.13;75.12;97764.47;4973570;28;20085;-47